Pagina principală
METAR-TAF:

METAR-TAF

Aeroporturi :

Cobar, Australia

Latitudine: 31-32-18S, longitudine: 145-47-36E, elevație: 221 m

Observații meteo curente

Raportul a fost făcut în urmă cu 46 de minute, la 08:00 UTC
Vânt calm
Temperatură 16°C
Umiditate 59%
Presiune 1020 hPa
Vizibilitate de 10 km sau mai mult

METAR: YCBA 260800Z AUTO 00000KT 9999 // NCD 16/08 Q1020

Ora: 18:46 (08:46 UTC)


TAF: lipsă

Observații și prognoze meteo pentru peste 4.000 de aeroporturi (rapoarte METAR și TAF).

Stațiile disponibile sunt reprezentate pe hartă prin puncte galbene și roșii.

Țineți indicatorul mouse-ului pe punctul dorit pentru a vedea denumirea stației.

Apoi, faceți clic pentru a vedea observațiile și prognozele meteorologice.

Pentru a schimba harta: Pentru mărire, faceți clic pe butoanele verzi cu cruce neagră; pentru micșorare, pe butonul verde cu o liniuță; pentru hărți învecinate, pe săgețile verzi.


METAR-TAF: